Time;durP1;ratioP1;P1;durP2;ratioP2;P2;SDS_P1;SDS_P2;PMS_P1;PMS_P2;Temp;Humidity;BMP_temperature;BMP_pressure;BME280_temperature;BME280_humidity;BME280_pressure;Samples;Min_cycle;Max_cycle;Signal;HPM_P1;HPM_P2
2021/07/09 00:02:12;;;;;;;14.65;9.07;;;;;;;16.12;52.05;102094.41;5020157;28;20065;-69
2021/07/09 00:04:38;;;;;;;15.23;9.70;;;;;;;16.17;52.08;102088.91;4992192;28;20123;-70
2021/07/09 00:07:04;;;;;;;17.00;9.55;;;;;;;16.08;52.08;102084.06;5006778;28;20172;-69
2021/07/09 00:09:30;;;;;;;13.55;9.20;;;;;;;16.07;52.68;102072.66;5006139;28;20085;-69
2021/07/09 00:11:56;;;;;;;13.40;8.65;;;;;;;15.86;52.80;102066.50;5009673;28;20503;-69
2021/07/09 00:14:26;;;;;;;16.40;8.70;;;;;;;15.95;52.81;102071.41;5000151;28;20056;-69
2021/07/09 00:16:52;;;;;;;14.77;9.63;;;;;;;15.85;53.15;102075.34;5002702;28;20034;-69
2021/07/09 00:19:18;;;;;;;18.25;9.85;;;;;;;15.94;53.18;102082.84;5005811;28;20035;-69
2021/07/09 00:21:43;;;;;;;16.70;9.07;;;;;;;15.99;52.92;102080.88;5008743;28;20037;-69
2021/07/09 00:24:09;;;;;;;16.05;8.07;;;;;;;16.16;52.47;102082.78;5004378;28;20388;-69
2021/07/09 00:26:35;;;;;;;14.10;9.77;;;;;;;16.31;51.99;102081.25;5002901;28;20038;-69
2021/07/09 00:29:02;;;;;;;13.10;9.02;;;;;;;16.26;52.30;102088.50;5006170;28;20116;-69
2021/07/09 00:31:29;;;;;;;14.98;8.93;;;;;;;16.21;52.11;102090.50;5002078;28;20091;-69
2021/07/09 00:33:56;;;;;;;14.38;8.63;;;;;;;16.32;52.04;102088.22;4999915;28;20535;-70
2021/07/09 00:36:22;;;;;;;13.45;8.38;;;;;;;16.40;51.96;102083.47;5001710;28;20034;-71
2021/07/09 00:38:47;;;;;;;14.80;9.02;;;;;;;16.34;51.58;102081.09;4999312;28;20380;-70
2021/07/09 00:41:13;;;;;;;13.50;9.00;;;;;;;16.34;51.79;102075.81;5003521;28;20041;-69
2021/07/09 00:43:39;;;;;;;18.55;9.13;;;;;;;16.45;51.30;102071.84;5003288;28;20037;-69
2021/07/09 00:46:04;;;;;;;17.83;9.35;;;;;;;16.41;51.81;102074.63;5001886;28;20141;-69
2021/07/09 00:48:30;;;;;;;12.07;8.23;;;;;;;16.30;51.85;102073.41;5005281;28;20801;-70
2021/07/09 00:51:00;;;;;;;16.75;8.90;;;;;;;16.51;51.55;102076.81;5003904;28;20080;-70
2021/07/09 00:53:26;;;;;;;12.18;8.30;;;;;;;16.56;51.04;102065.16;5002081;28;20727;-69
2021/07/09 00:55:52;;;;;;;16.83;9.05;;;;;;;16.32;52.04;102071.56;5007699;28;20034;-69
2021/07/09 00:58:19;;;;;;;15.75;9.00;;;;;;;16.34;51.66;102073.19;5013950;28;20056;-69
2021/07/09 01:00:45;;;;;;;13.70;8.60;;;;;;;16.39;51.57;102065.06;5005567;28;20293;-69
2021/07/09 01:03:11;;;;;;;12.70;8.30;;;;;;;16.37;52.06;102070.41;5002317;28;20038;-69
2021/07/09 01:05:37;;;;;;;14.50;8.85;;;;;;;16.24;52.02;102061.34;5001610;28;20064;-70
2021/07/09 01:08:05;;;;;;;16.23;8.25;;;;;;;16.14;52.15;102057.41;5009731;28;20479;-70
2021/07/09 01:10:32;;;;;;;12.30;7.38;;;;;;;16.23;51.80;102062.28;5003948;28;20547;-69
2021/07/09 01:12:57;;;;;;;12.90;7.28;;;;;;;16.27;51.89;102055.94;5003262;28;20050;-68
2021/07/09 01:15:23;;;;;;;11.30;7.60;;;;;;;16.13;52.24;102058.31;5004180;28;20092;-68
2021/07/09 01:17:50;;;;;;;15.45;7.68;;;;;;;16.25;51.74;102055.16;5003206;28;20030;-69
2021/07/09 01:20:18;;;;;;;14.10;7.03;;;;;;;16.13;51.85;102053.94;5014578;28;20871;-70
2021/07/09 01:22:46;;;;;;;12.40;7.07;;;;;;;16.10;52.09;102048.78;5004534;28;20034;-70
2021/07/09 01:25:13;;;;;;;12.55;7.53;;;;;;;16.17;52.02;102049.34;5001843;28;20728;-68
2021/07/09 01:27:40;;;;;;;11.70;7.72;;;;;;;16.12;51.92;102048.72;5019084;28;20125;-69
2021/07/09 01:30:09;;;;;;;10.68;7.05;;;;;;;16.27;51.56;102050.66;4998326;28;20046;-71
2021/07/09 01:32:34;;;;;;;14.77;7.07;;;;;;;16.25;51.52;102056.94;4999385;28;20034;-70
2021/07/09 01:35:00;;;;;;;13.07;8.32;;;;;;;15.97;51.32;102051.09;5001556;28;20048;-70
2021/07/09 01:37:25;;;;;;;10.82;7.63;;;;;;;16.11;51.89;102041.75;4999434;28;20033;-70
2021/07/09 01:39:51;;;;;;;11.82;8.20;;;;;;;16.04;52.20;102042.91;5000706;28;20498;-69
2021/07/09 01:42:16;;;;;;;18.25;8.48;;;;;;;16.14;52.07;102046.88;4998539;28;20481;-70
2021/07/09 01:44:42;;;;;;;15.60;8.00;;;;;;;16.05;52.37;102039.38;5001824;28;20041;-69
2021/07/09 01:47:08;;;;;;;13.27;8.45;;;;;;;16.14;52.35;102052.13;5002614;28;20052;-70
2021/07/09 01:49:51;;;;;;;18.55;9.75;;;;;;;15.97;52.52;102040.53;4998686;28;20030;-69
2021/07/09 01:52:17;;;;;;;16.02;9.30;;;;;;;15.98;53.03;102047.50;4995625;28;20038;-69
2021/07/09 01:54:42;;;;;;;17.27;9.80;;;;;;;15.91;53.48;102038.16;5004025;28;20049;-70
2021/07/09 01:57:09;;;;;;;17.33;11.00;;;;;;;15.93;53.38;102033.69;5001623;28;20656;-69
2021/07/09 01:59:35;;;;;;;18.55;11.07;;;;;;;15.90;53.74;102041.72;5014769;28;20415;-70
2021/07/09 02:02:00;;;;;;;17.10;12.15;;;;;;;15.87;53.91;102051.56;4984264;28;20037;-69
2021/07/09 02:04:26;;;;;;;21.35;12.27;;;;;;;16.03;53.71;102047.34;4993160;28;20065;-70
2021/07/09 02:06:51;;;;;;;21.10;12.60;;;;;;;16.20;53.35;102054.50;5004098;28;20046;-69
2021/07/09 02:09:17;;;;;;;24.08;13.68;;;;;;;16.13;53.57;102058.31;5000734;28;20322;-69
2021/07/09 02:11:44;;;;;;;24.15;13.73;;;;;;;16.34;52.99;102065.28;5002050;28;20506;-69
2021/07/09 02:14:10;;;;;;;22.40;11.25;;;;;;;16.28;53.37;102068.19;5005120;28;20104;-69
2021/07/09 02:16:35;;;;;;;26.35;13.43;;;;;;;16.31;53.37;102064.53;4998537;28;20505;-70
2021/07/09 02:19:01;;;;;;;21.20;13.60;;;;;;;16.29;53.84;102066.44;5000354;28;20046;-69
2021/07/09 02:21:26;;;;;;;27.55;13.25;;;;;;;16.31;53.80;102069.81;5003690;28;20116;-69
2021/07/09 02:23:52;;;;;;;23.30;12.30;;;;;;;16.37;53.52;102066.91;5003358;28;20117;-69
2021/07/09 02:26:17;;;;;;;18.05;11.45;;;;;;;16.42;53.55;102064.94;5003001;28;20030;-72
2021/07/09 02:28:43;;;;;;;25.98;12.77;;;;;;;16.42;53.16;102068.44;5004164;28;20045;-69
2021/07/09 02:31:08;;;;;;;22.45;11.70;;;;;;;16.35;53.42;102067.00;5002754;28;20029;-69
2021/07/09 02:33:34;;;;;;;19.75;12.63;;;;;;;16.34;53.34;102072.34;5003382;28;20033;-70
2021/07/09 02:35:59;;;;;;;23.77;13.57;;;;;;;16.33;53.19;102068.84;5002137;28;20033;-70
2021/07/09 02:38:25;;;;;;;21.10;12.68;;;;;;;16.19;53.58;102076.53;5000456;28;20037;-70
2021/07/09 02:40:50;;;;;;;23.83;13.57;;;;;;;16.16;53.26;102077.50;5002017;28;20125;-70
2021/07/09 02:43:16;;;;;;;28.50;12.80;;;;;;;16.22;53.28;102079.03;5008955;28;20041;-70
2021/07/09 02:45:41;;;;;;;24.80;12.55;;;;;;;16.30;53.04;102073.41;5003108;28;20297;-70
2021/07/09 02:48:07;;;;;;;21.45;13.00;;;;;;;16.35;52.88;102081.94;5000055;28;20137;-70
2021/07/09 02:50:32;;;;;;;23.42;11.65;;;;;;;16.31;52.61;102091.81;4999586;28;20083;-70
2021/07/09 02:52:58;;;;;;;20.30;11.57;;;;;;;16.41;52.25;102085.16;4996182;28;20518;-69
2021/07/09 02:55:23;;;;;;;21.02;11.35;;;;;;;16.35;52.40;102100.41;5004055;28;20042;-69
2021/07/09 02:57:49;;;;;;;21.75;10.45;;;;;;;16.45;51.79;102095.59;5005648;28;20101;-69
2021/07/09 03:00:17;;;;;;;17.80;9.00;;;;;;;16.22;52.22;102094.88;5003934;28;20037;-70
2021/07/09 03:02:43;;;;;;;14.48;8.73;;;;;;;16.32;51.72;102100.56;5003203;28;20121;-70
2021/07/09 03:05:11;;;;;;;14.35;7.85;;;;;;;16.29;51.85;102101.56;4984744;28;20590;-70
2021/07/09 03:07:37;;;;;;;14.02;8.60;;;;;;;16.27;51.96;102099.94;5012941;28;20053;-70
2021/07/09 03:10:07;;;;;;;15.75;8.25;;;;;;;16.18;52.31;102109.97;4997345;28;20034;-70
2021/07/09 03:12:32;;;;;;;18.42;7.97;;;;;;;16.19;52.18;102108.16;4986156;28;20112;-69
2021/07/09 03:14:58;;;;;;;19.15;8.85;;;;;;;16.25;51.50;102113.19;5004711;28;20104;-70
2021/07/09 03:17:23;;;;;;;19.42;9.02;;;;;;;16.36;51.30;102110.91;5005332;28;20431;-68
2021/07/09 03:19:49;;;;;;;18.52;9.00;;;;;;;16.28;51.49;102107.75;5003424;28;20038;-69
2021/07/09 03:22:14;;;;;;;14.40;7.90;;;;;;;16.27;51.55;102110.47;5005509;28;21041;-70
2021/07/09 03:24:40;;;;;;;14.73;7.90;;;;;;;16.15;51.81;102112.75;5004699;28;20060;-70
2021/07/09 03:27:08;;;;;;;14.15;7.65;;;;;;;16.22;51.45;102108.06;5006724;28;20064;-69
2021/07/09 03:29:33;;;;;;;12.82;6.60;;;;;;;16.15;51.80;102102.19;4995250;28;20041;-70
2021/07/09 03:31:59;;;;;;;12.20;6.13;;;;;;;16.23;51.71;102099.19;5011699;28;20049;-69
2021/07/09 03:34:25;;;;;;;11.48;6.80;;;;;;;16.12;52.03;102096.19;5012002;28;20026;-69
2021/07/09 03:36:51;;;;;;;14.48;5.85;;;;;;;16.02;52.05;102097.50;5009658;28;20034;-69
2021/07/09 03:39:17;;;;;;;8.45;5.80;;;;;;;16.22;51.73;102100.13;5007662;28;20487;-69
2021/07/09 03:41:43;;;;;;;9.98;5.97;;;;;;;16.24;51.97;102100.91;5008889;28;20035;-70
2021/07/09 03:44:10;;;;;;;10.25;5.75;;;;;;;16.13;52.23;102095.25;5025201;28;20033;-69
2021/07/09 03:46:39;;;;;;;18.23;6.70;;;;;;;16.14;51.87;102086.44;5005327;28;20439;-69
2021/07/09 03:49:06;;;;;;;13.82;7.20;;;;;;;16.22;52.17;102097.50;5002406;28;20034;-68
2021/07/09 03:51:33;;;;;;;11.55;6.65;;;;;;;16.14;52.27;102094.34;5000466;28;20084;-68
2021/07/09 03:53:59;;;;;;;11.68;7.13;;;;;;;16.11;52.42;102097.97;5006982;28;20053;-70
2021/07/09 03:56:28;;;;;;;19.85;6.78;;;;;;;15.99;52.82;102096.72;5008549;28;20185;-69
2021/07/09 03:58:54;;;;;;;14.95;7.60;;;;;;;15.99;52.93;102101.09;5019594;28;20407;-69
2021/07/09 04:01:20;;;;;;;14.55;7.45;;;;;;;16.18;52.40;102096.78;5026165;28;20089;-69
2021/07/09 04:03:45;;;;;;;14.02;8.55;;;;;;;16.14;52.40;102094.34;5012430;28;20096;-69
2021/07/09 04:06:11;;;;;;;12.65;7.60;;;;;;;15.99;53.07;102091.44;5011669;28;20045;-69
2021/07/09 04:08:36;;;;;;;23.70;8.32;;;;;;;16.07;53.06;102090.25;5010596;28;20030;-68
2021/07/09 04:11:02;;;;;;;13.32;7.28;;;;;;;16.13;52.93;102088.22;5007920;28;20038;-68
2021/07/09 04:13:28;;;;;;;10.27;6.90;;;;;;;16.18;52.54;102080.09;5021466;28;20406;-68
2021/07/09 04:15:53;;;;;;;14.25;7.47;;;;;;;16.08;52.91;102084.06;5009399;28;20026;-69
2021/07/09 04:18:19;;;;;;;14.50;7.05;;;;;;;16.16;52.75;102087.22;5012277;28;20031;-68
2021/07/09 04:20:44;;;;;;;16.88;7.13;;;;;;;16.21;52.55;102093.13;4991235;28;20451;-68
2021/07/09 04:23:10;;;;;;;14.93;7.35;;;;;;;16.11;52.70;102089.22;5004570;28;20041;-69
2021/07/09 04:25:35;;;;;;;16.95;7.97;;;;;;;16.21;52.74;102093.13;5005575;28;20480;-69
2021/07/09 04:28:01;;;;;;;13.30;8.48;;;;;;;16.12;52.68;102086.47;5026966;28;20044;-69
2021/07/09 04:30:27;;;;;;;15.35;7.75;;;;;;;16.33;52.41;102087.31;5016576;28;20048;-68
2021/07/09 04:32:53;;;;;;;17.88;7.20;;;;;;;16.09;52.33;102091.91;5008857;28;20491;-68
2021/07/09 04:35:18;;;;;;;9.10;5.63;;;;;;;16.21;52.13;102093.13;5006093;28;20066;-69
2021/07/09 04:37:44;;;;;;;11.15;6.78;;;;;;;16.32;51.89;102087.38;5006874;28;20056;-67
2021/07/09 04:40:10;;;;;;;14.48;7.05;;;;;;;16.24;52.08;102085.06;5001301;28;20432;-67
2021/07/09 04:42:36;;;;;;;11.75;6.15;;;;;;;16.47;52.14;102088.47;5008460;28;20048;-69
2021/07/09 04:45:02;;;;;;;12.50;6.63;;;;;;;16.44;52.04;102084.16;5005924;28;20037;-69
2021/07/09 04:47:27;;;;;;;8.98;6.43;;;;;;;16.55;51.74;102087.16;5005773;28;20034;-68
2021/07/09 04:49:53;;;;;;;13.98;7.43;;;;;;;16.36;51.80;102087.16;5011558;28;20270;-68
2021/07/09 04:52:18;;;;;;;9.93;6.75;;;;;;;16.49;51.60;102081.31;5020528;28;20033;-68
2021/07/09 04:54:44;;;;;;;10.88;6.65;;;;;;;16.45;51.84;102080.63;5010513;28;20380;-68
2021/07/09 04:57:09;;;;;;;15.23;7.90;;;;;;;16.41;52.25;102077.25;5012099;28;20042;-68
2021/07/09 04:59:35;;;;;;;18.55;8.25;;;;;;;16.61;51.42;102089.53;4997275;28;20033;-67
2021/07/09 05:02:00;;;;;;;14.25;9.02;;;;;;;16.66;51.74;102088.47;5010226;28;20050;-68
2021/07/09 05:04:26;;;;;;;16.38;8.43;;;;;;;16.50;51.53;102091.81;4991171;28;20120;-68
2021/07/09 05:06:51;;;;;;;16.20;8.60;;;;;;;16.75;51.25;102091.56;5008652;28;20296;-68
2021/07/09 05:09:17;;;;;;;12.50;7.70;;;;;;;16.65;51.71;102100.81;5013610;28;20033;-68
2021/07/09 05:11:43;;;;;;;14.80;6.75;;;;;;;16.65;51.68;102095.53;5013818;28;20044;-68
2021/07/09 05:14:10;;;;;;;15.10;8.10;;;;;;;16.70;51.86;102098.81;5009447;28;20364;-68
2021/07/09 05:16:35;;;;;;;16.50;7.88;;;;;;;16.69;51.44;102090.94;5012032;28;20038;-69
2021/07/09 05:19:02;;;;;;;19.05;10.50;;;;;;;16.67;51.74;102096.31;5013099;28;20049;-67
2021/07/09 05:21:28;;;;;;;18.35;10.00;;;;;;;16.74;52.04;102088.97;5008710;28;20022;-69
2021/07/09 05:23:55;;;;;;;19.70;9.93;;;;;;;16.65;51.98;102100.81;5010538;28;20455;-68
2021/07/09 05:26:21;;;;;;;18.92;11.80;;;;;;;16.67;51.59;102093.69;5004952;28;20353;-67
2021/07/09 05:28:47;;;;;;;17.60;10.30;;;;;;;16.88;51.52;102088.34;5009815;28;20094;-68
2021/07/09 05:31:13;;;;;;;17.75;10.75;;;;;;;16.79;51.23;102093.13;5003566;28;20052;-68
2021/07/09 05:33:38;;;;;;;23.00;10.93;;;;;;;17.08;51.03;102096.16;5003753;28;20045;-68
2021/07/09 05:36:04;;;;;;;18.23;10.52;;;;;;;16.82;51.59;102100.91;4988737;28;20261;-68
2021/07/09 05:38:30;;;;;;;25.30;10.35;;;;;;;16.93;51.13;102102.19;5008213;28;20467;-67
2021/07/09 05:40:55;;;;;;;19.67;10.00;;;;;;;16.64;51.75;102101.72;5004856;28;20053;-67
2021/07/09 05:43:21;;;;;;;16.98;9.68;;;;;;;16.91;51.27;102112.84;5006427;28;20037;-68
2021/07/09 05:45:47;;;;;;;11.63;7.40;;;;;;;17.09;50.77;102113.75;5011284;28;20488;-68
2021/07/09 05:48:12;;;;;;;15.55;8.65;;;;;;;17.05;51.01;102106.03;5015666;28;20037;-68
2021/07/09 05:50:38;;;;;;;15.55;7.85;;;;;;;16.92;51.06;102109.25;5001993;28;20416;-68
2021/07/09 05:53:03;;;;;;;16.58;8.95;;;;;;;17.44;49.85;102104.06;5013592;28;20037;-68
2021/07/09 05:55:29;;;;;;;14.70;8.23;;;;;;;17.69;49.61;102099.38;5008169;28;20114;-67
2021/07/09 05:57:55;;;;;;;14.48;7.22;;;;;;;17.74;49.01;102107.91;5001629;28;20030;-68
2021/07/09 06:00:20;;;;;;;17.55;7.90;;;;;;;17.72;49.21;102094.78;5023042;28;20037;-69
2021/07/09 06:02:46;;;;;;;11.98;8.55;;;;;;;18.20;48.36;102100.28;5015851;28;20581;-67
2021/07/09 06:05:11;;;;;;;16.13;7.63;;;;;;;17.84;48.50;102098.59;5008576;28;20030;-68
2021/07/09 06:07:38;;;;;;;14.57;7.90;;;;;;;18.04;48.07;102090.47;5003672;28;20072;-68
2021/07/09 06:10:05;;;;;;;14.63;8.52;;;;;;;18.27;48.12;102091.94;5006431;28;20038;-68
2021/07/09 06:12:31;;;;;;;16.25;7.22;;;;;;;18.59;47.07;102091.13;5000433;28;20072;-68
2021/07/09 06:14:57;;;;;;;12.07;6.80;;;;;;;18.42;48.12;102089.38;5014125;28;20036;-70
2021/07/09 06:17:22;;;;;;;15.10;6.30;;;;;;;18.60;46.77;102093.66;5008952;28;20030;-68
2021/07/09 06:19:48;;;;;;;8.00;5.75;;;;;;;18.83;46.02;102089.78;5005091;28;20038;-68
2021/07/09 06:22:14;;;;;;;11.00;5.93;;;;;;;19.23;45.09;102092.84;5010719;28;20213;-69
2021/07/09 06:24:40;;;;;;;10.07;4.45;;;;;;;19.54;44.29;102091.03;5009219;28;20128;-70
2021/07/09 06:27:06;;;;;;;9.05;5.95;;;;;;;19.42;44.53;102081.16;5011255;28;20100;-68
2021/07/09 06:29:32;;;;;;;6.10;5.50;;;;;;;18.97;44.88;102082.88;5018610;28;20045;-68
2021/07/09 06:31:58;;;;;;;7.35;5.55;;;;;;;19.25;44.61;102082.97;5005091;28;20098;-69
2021/07/09 06:34:23;;;;;;;10.80;5.47;;;;;;;18.63;46.08;102084.69;5010752;28;20038;-68
2021/07/09 06:36:49;;;;;;;7.57;5.00;;;;;;;18.87;44.81;102080.72;5008473;28;20048;-68
2021/07/09 06:39:14;;;;;;;8.45;5.32;;;;;;;19.32;44.22;102085.28;5012710;28;20030;-68
2021/07/09 06:41:40;;;;;;;9.00;4.88;;;;;;;19.40;43.98;102088.34;5013659;28;20046;-68
2021/07/09 06:44:05;;;;;;;7.07;4.70;;;;;;;19.55;43.67;102090.13;5011738;28;20026;-69
2021/07/09 06:46:31;;;;;;;5.70;4.57;;;;;;;19.23;43.36;102090.19;4994396;28;20434;-68
2021/07/09 06:48:56;;;;;;;10.60;5.63;;;;;;;19.44;42.73;102087.22;4993405;28;20093;-68
2021/07/09 06:51:22;;;;;;;5.93;4.78;;;;;;;19.75;43.31;102088.94;5018527;28;20034;-68
2021/07/09 06:53:47;;;;;;;6.70;4.22;;;;;;;19.99;42.43;102093.69;5009338;28;20463;-68
2021/07/09 06:56:16;;;;;;;5.53;4.20;;;;;;;19.91;41.57;102094.16;4994882;28;20096;-68
2021/07/09 06:58:42;;;;;;;7.97;4.65;;;;;;;19.74;42.26;102091.66;5008084;28;20092;-68
2021/07/09 07:01:09;;;;;;;7.70;3.85;;;;;;;19.65;41.86;102091.28;5016875;28;20480;-69
2021/07/09 07:03:35;;;;;;;6.78;3.30;;;;;;;19.82;41.91;102090.28;5011673;28;20037;-69
2021/07/09 07:06:00;;;;;;;7.95;3.00;;;;;;;20.00;41.95;102096.25;5006894;28;20034;-68
2021/07/09 07:08:26;;;;;;;5.43;3.00;;;;;;;21.11;38.62;102097.28;5009559;28;20130;-68
2021/07/09 07:10:54;;;;;;;6.20;2.33;;;;;;;22.02;36.57;102091.16;5013069;28;20030;-68
2021/07/09 07:13:21;;;;;;;4.43;2.08;;;;;;;21.71;36.47;102091.50;4989584;28;20083;-68
2021/07/09 07:15:47;;;;;;;6.55;2.33;;;;;;;21.22;37.92;102097.44;5003212;28;20084;-68
2021/07/09 07:18:13;;;;;;;5.55;2.17;;;;;;;20.16;39.70;102098.81;5013887;28;20053;-67
2021/07/09 07:20:41;;;;;;;3.20;2.45;;;;;;;20.34;39.67;102096.84;5016675;28;20048;-66
2021/07/09 07:23:08;;;;;;;9.57;2.55;;;;;;;20.30;39.53;102095.34;5007133;28;20052;-69
2021/07/09 07:25:34;;;;;;;5.15;2.70;;;;;;;20.92;38.86;102090.50;5012207;28;20038;-69
2021/07/09 07:28:00;;;;;;;3.17;2.70;;;;;;;20.93;39.64;102088.69;4994222;28;20037;-68
2021/07/09 07:30:29;;;;;;;4.47;2.25;;;;;;;20.94;39.03;102087.75;5011118;28;20065;-69
2021/07/09 07:32:55;;;;;;;5.65;2.78;;;;;;;20.97;39.65;102094.69;5017394;28;20522;-69
2021/07/09 07:35:21;;;;;;;3.92;2.60;;;;;;;20.49;39.11;102092.41;5009125;28;20072;-68
2021/07/09 07:37:47;;;;;;;3.65;2.28;;;;;;;20.15;40.00;102090.94;5026316;28;20297;-69
2021/07/09 07:40:13;;;;;;;4.60;2.47;;;;;;;19.81;40.62;102088.53;5010197;28;20056;-68
2021/07/09 07:42:39;;;;;;;4.25;2.17;;;;;;;20.21;39.78;102090.59;5009339;28;20104;-74
2021/07/09 07:45:05;;;;;;;4.35;2.10;;;;;;;21.46;38.24;102086.09;5011743;28;20029;-68
2021/07/09 07:47:31;;;;;;;2.75;1.75;;;;;;;22.10;36.28;102087.06;5012281;28;20410;-68
2021/07/09 07:49:57;;;;;;;4.80;2.50;;;;;;;22.94;35.10;102088.16;5007792;28;20467;-68
2021/07/09 07:52:23;;;;;;;5.40;1.75;;;;;;;23.38;33.25;102097.31;5011123;28;20033;-68
2021/07/09 07:54:48;;;;;;;4.00;1.50;;;;;;;23.13;33.80;102087.63;5008215;28;20096;-71
2021/07/09 07:57:14;;;;;;;2.05;1.70;;;;;;;23.24;32.71;102094.81;5009331;28;20037;-69
2021/07/09 07:59:41;;;;;;;6.63;2.05;;;;;;;24.02;32.80;102090.69;5001222;28;20053;-69
2021/07/09 08:02:08;;;;;;;6.88;2.60;;;;;;;24.28;32.25;102090.41;5006088;28;20320;-68
2021/07/09 08:04:34;;;;;;;6.30;2.38;;;;;;;22.89;34.28;102095.63;5008124;28;20060;-68
2021/07/09 08:06:59;;;;;;;7.00;2.25;;;;;;;24.08;32.95;102100.88;5007610;28;20077;-68
2021/07/09 08:09:25;;;;;;;5.38;2.40;;;;;;;25.00;30.86;102095.31;5013387;28;20053;-70
2021/07/09 08:11:52;;;;;;;5.25;2.40;;;;;;;24.61;31.80;102093.06;5008656;28;20100;-69
2021/07/09 08:14:19;;;;;;;3.20;2.45;;;;;;;24.78;31.61;102090.88;5002452;28;20097;-68
2021/07/09 08:16:50;;;;;;;5.38;2.22;;;;;;;25.62;31.24;102088.34;5005589;28;20116;-68
2021/07/09 08:19:16;;;;;;;3.72;1.83;;;;;;;25.50;30.13;102089.38;5003900;28;20105;-68
2021/07/09 08:21:42;;;;;;;3.22;1.77;;;;;;;25.09;30.10;102093.72;5008894;28;20093;-68
2021/07/09 08:24:08;;;;;;;5.15;1.90;;;;;;;27.07;27.76;102085.31;5013089;28;20495;-68
2021/07/09 08:26:33;;;;;;;3.72;1.52;;;;;;;28.44;26.14;102083.13;5005780;28;20052;-67
2021/07/09 08:28:59;;;;;;;3.05;1.50;;;;;;;27.47;26.51;102083.44;5020573;28;20022;-68
2021/07/09 08:31:24;;;;;;;3.50;1.50;;;;;;;27.58;27.11;102085.13;5000344;28;20070;-68
2021/07/09 08:33:51;;;;;;;3.78;1.60;;;;;;;28.63;25.04;102087.53;5008255;28;20053;-68
2021/07/09 08:36:17;;;;;;;5.78;1.80;;;;;;;28.72;25.04;102096.53;5021851;28;20037;-69
2021/07/09 08:38:42;;;;;;;2.67;2.05;;;;;;;27.50;26.72;102091.22;5011416;28;20048;-68
2021/07/09 08:41:11;;;;;;;3.17;1.85;;;;;;;25.71;28.86;102095.59;5005270;28;20067;-69
2021/07/09 08:43:38;;;;;;;2.63;1.83;;;;;;;24.63;31.02;102092.97;5002944;28;20030;-70
2021/07/09 08:46:04;;;;;;;3.92;2.10;;;;;;;24.32;31.48;102090.03;5003773;28;20038;-70
2021/07/09 08:48:30;;;;;;;3.53;2.63;;;;;;;25.10;30.55;102098.06;5006685;28;20500;-69
2021/07/09 08:50:59;;;;;;;4.03;1.50;;;;;;;24.98;29.55;102092.78;5009310;28;20038;-69
2021/07/09 08:53:25;;;;;;;3.22;1.77;;;;;;;24.42;31.14;102092.88;5018682;28;20116;-69
2021/07/09 08:55:51;;;;;;;2.58;1.92;;;;;;;25.76;30.90;102092.53;5003324;28;20045;-68
2021/07/09 08:58:16;;;;;;;2.90;1.80;;;;;;;25.15;30.64;102091.38;5004145;28;20566;-69
2021/07/09 09:00:44;;;;;;;2.88;1.83;;;;;;;25.23;30.43;102088.88;5005667;28;20044;-69
2021/07/09 09:03:14;;;;;;;2.90;1.77;;;;;;;24.69;30.94;102094.28;5014741;28;20046;-69
2021/07/09 09:05:40;;;;;;;3.70;1.90;;;;;;;24.27;31.68;102088.72;5003572;28;20030;-69
2021/07/09 09:08:07;;;;;;;2.78;1.95;;;;;;;26.33;30.14;102085.72;4995702;28;20080;-69
2021/07/09 09:10:41;;;;;;;4.32;2.00;;;;;;;26.93;27.48;102085.72;4995998;28;20057;-69
2021/07/09 09:13:11;;;;;;;3.58;1.85;;;;;;;27.15;27.07;102091.84;5004192;28;20068;-69
2021/07/09 09:15:42;;;;;;;3.17;1.85;;;;;;;27.36;27.61;102088.97;5001815;28;20449;-68
2021/07/09 09:18:22;;;;;;;4.00;1.52;;;;;;;28.53;25.44;102073.31;5002983;28;20325;-68
2021/07/09 09:20:56;;;;;;;3.95;1.50;;;;;;;27.07;26.69;102077.28;5001477;28;20113;-68
2021/07/09 09:23:22;;;;;;;3.65;1.30;;;;;;;26.22;28.63;102076.00;5006371;28;20060;-68
2021/07/09 09:25:47;;;;;;;2.75;1.55;;;;;;;25.65;28.72;102083.56;5007798;28;20847;-68
2021/07/09 09:28:13;;;;;;;4.57;2.15;;;;;;;24.88;30.42;102078.41;5007871;28;20532;-69
2021/07/09 09:30:41;;;;;;;3.67;2.00;;;;;;;24.18;30.85;102076.97;5008884;28;20132;-67
2021/07/09 09:33:12;;;;;;;3.03;1.88;;;;;;;25.19;31.46;102081.25;5024486;28;20148;-70
2021/07/09 09:35:45;;;;;;;2.28;1.63;;;;;;;25.42;29.77;102090.00;5001899;28;20073;-68
2021/07/09 09:38:14;;;;;;;5.18;1.75;;;;;;;25.15;30.33;102093.19;5002878;28;20037;-68
2021/07/09 09:40:43;;;;;;;4.90;1.67;;;;;;;24.82;30.56;102086.97;5002164;28;20036;-69
2021/07/09 09:43:20;;;;;;;5.80;1.70;;;;;;;25.25;29.46;102086.09;5003867;28;20063;-68
2021/07/09 09:45:57;;;;;;;2.92;2.03;;;;;;;24.29;31.18;102086.78;5001530;28;20042;-69
2021/07/09 09:48:32;;;;;;;5.82;1.85;;;;;;;23.79;31.26;102093.31;5001879;28;20045;-69
2021/07/09 09:50:58;;;;;;;3.05;1.83;;;;;;;24.03;31.47;102097.72;4997152;28;20528;-68
2021/07/09 09:53:34;;;;;;;3.95;1.85;;;;;;;24.18;31.77;102090.31;4996797;28;20036;-69
2021/07/09 09:56:07;;;;;;;3.15;1.80;;;;;;;24.42;31.08;102090.22;5002673;28;20033;-68
2021/07/09 09:58:34;;;;;;;2.03;1.52;;;;;;;24.29;31.27;102081.44;4998425;28;20038;-68
2021/07/09 10:01:01;;;;;;;2.60;2.25;;;;;;;24.61;31.27;102085.06;5002777;28;20091;-69
2021/07/09 10:03:26;;;;;;;2.05;1.48;;;;;;;24.22;30.20;102089.94;5001779;28;20042;-68
2021/07/09 10:05:52;;;;;;;2.00;1.77;;;;;;;24.42;30.34;102082.19;4982553;28;20049;-68
2021/07/09 10:08:21;;;;;;;2.13;1.40;;;;;;;24.64;30.49;102083.97;4999872;28;20375;-68
2021/07/09 10:10:47;;;;;;;1.55;1.45;;;;;;;24.37;31.24;102087.00;5002077;28;20127;-69
2021/07/09 10:13:16;;;;;;;2.72;2.00;;;;;;;23.98;30.96;102090.06;5015326;28;20549;-67
2021/07/09 10:15:43;;;;;;;3.17;1.67;;;;;;;23.98;31.51;102078.53;5005887;28;20042;-68
2021/07/09 10:18:13;;;;;;;3.78;1.70;;;;;;;24.37;31.19;102084.34;4985193;28;20064;-67
2021/07/09 10:20:41;;;;;;;3.15;2.17;;;;;;;22.69;32.79;102082.91;4993529;28;20085;-68
2021/07/09 10:23:08;;;;;;;2.80;1.80;;;;;;;23.12;32.07;102085.06;4987201;28;20030;-67
2021/07/09 10:25:34;;;;;;;2.30;2.08;;;;;;;22.71;34.67;102091.63;4999303;28;20052;-67
2021/07/09 10:28:05;;;;;;;4.65;2.53;;;;;;;22.09;35.08;102085.38;5008188;28;20767;-68
2021/07/09 10:30:39;;;;;;;4.70;2.33;;;;;;;22.08;35.19;102094.28;4986073;28;20033;-68
2021/07/09 10:33:31;;;;;;;2.45;2.15;;;;;;;22.79;32.94;102092.78;4999099;28;20403;-69
2021/07/09 10:35:58;;;;;;;4.47;2.58;;;;;;;23.05;32.89;102094.47;5001680;28;20038;-68
2021/07/09 10:38:34;;;;;;;2.65;2.45;;;;;;;22.21;34.19;102096.09;5005370;28;20026;-68
2021/07/09 10:41:18;;;;;;;3.70;2.15;;;;;;;21.94;34.46;102089.06;4993411;28;20030;-68
2021/07/09 10:44:12;;;;;;;2.20;2.00;;;;;;;22.08;34.75;102085.44;5006537;28;20057;-66
2021/07/09 10:46:37;;;;;;;5.22;2.30;;;;;;;22.61;33.21;102091.44;5016808;28;20057;-69
2021/07/09 10:49:03;;;;;;;5.03;2.65;;;;;;;22.64;33.85;102093.03;5002930;28;20484;-68
2021/07/09 10:51:47;;;;;;;3.08;2.65;;;;;;;22.47;34.38;102092.44;5012629;28;20065;-69
2021/07/09 10:54:27;;;;;;;6.72;2.38;;;;;;;22.79;34.07;102084.78;5008569;28;20659;-68
2021/07/09 10:57:22;;;;;;;2.97;2.40;;;;;;;22.11;34.44;102088.75;4989831;28;20557;-68
2021/07/09 11:00:26;;;;;;;3.03;2.72;;;;;;;22.34;33.62;102088.94;5007308;28;20042;-68
2021/07/09 11:03:03;;;;;;;3.08;2.05;;;;;;;23.02;33.36;102084.06;5009504;28;20080;-69
2021/07/09 11:05:44;;;;;;;4.70;2.42;;;;;;;23.22;33.54;102086.06;5001901;28;20052;-69
2021/07/09 11:08:34;;;;;;;3.03;2.50;;;;;;;22.92;32.91;102090.06;4982301;28;20145;-69
2021/07/09 11:11:13;;;;;;;3.40;2.45;;;;;;;22.61;33.34;102090.59;5007154;28;20061;-68
2021/07/09 11:13:42;;;;;;;3.13;2.92;;;;;;;22.47;33.97;102103.09;4998814;28;20057;-68
2021/07/09 11:16:35;;;;;;;2.83;1.70;;;;;;;22.25;33.13;102097.56;5003714;28;20032;-68
2021/07/09 11:19:03;;;;;;;2.28;1.80;;;;;;;21.97;33.35;102094.16;5009238;28;20056;-68
2021/07/09 11:21:32;;;;;;;2.65;2.00;;;;;;;21.97;34.69;102092.34;5000146;28;20724;-68